sensor_id;sensor_type;location;lat;lon;timestamp;P1;durP1;ratioP1;P2;durP2;ratioP2
15340;SDS011;7770;52.158;5.372;2023-02-15T00:02:13;73.90;;;54.73;;
15340;SDS011;7770;52.158;5.372;2023-02-15T00:04:59;79.87;;;56.13;;
15340;SDS011;7770;52.158;5.372;2023-02-15T00:07:45;79.37;;;58.50;;
15340;SDS011;7770;52.158;5.372;2023-02-15T00:10:31;79.50;;;58.97;;
15340;SDS011;7770;52.158;5.372;2023-02-15T00:13:17;86.63;;;59.73;;
15340;SDS011;7770;52.158;5.372;2023-02-15T00:16:07;83.83;;;60.13;;
15340;SDS011;7770;52.158;5.372;2023-02-15T00:18:55;84.27;;;58.30;;
15340;SDS011;7770;52.158;5.372;2023-02-15T00:21:41;86.83;;;62.10;;
15340;SDS011;7770;52.158;5.372;2023-02-15T00:24:28;87.93;;;59.80;;
15340;SDS011;7770;52.158;5.372;2023-02-15T00:27:14;82.80;;;60.33;;
15340;SDS011;7770;52.158;5.372;2023-02-15T00:30:00;85.03;;;59.97;;
15340;SDS011;7770;52.158;5.372;2023-02-15T00:32:47;81.03;;;59.30;;
15340;SDS011;7770;52.158;5.372;2023-02-15T00:35:33;83.73;;;58.60;;
15340;SDS011;7770;52.158;5.372;2023-02-15T00:38:19;84.00;;;58.63;;
15340;SDS011;7770;52.158;5.372;2023-02-15T00:41:06;83.00;;;59.03;;
15340;SDS011;7770;52.158;5.372;2023-02-15T00:43:53;81.70;;;59.77;;
15340;SDS011;7770;52.158;5.372;2023-02-15T00:46:39;81.47;;;58.77;;
15340;SDS011;7770;52.158;5.372;2023-02-15T00:49:25;82.63;;;58.73;;
15340;SDS011;7770;52.158;5.372;2023-02-15T00:52:11;84.40;;;58.33;;
15340;SDS011;7770;52.158;5.372;2023-02-15T00:54:57;86.67;;;60.57;;
15340;SDS011;7770;52.158;5.372;2023-02-15T00:57:43;84.97;;;59.87;;
15340;SDS011;7770;52.158;5.372;2023-02-15T01:00:29;83.77;;;57.57;;
15340;SDS011;7770;52.158;5.372;2023-02-15T01:03:16;82.03;;;57.47;;
15340;SDS011;7770;52.158;5.372;2023-02-15T01:06:04;83.80;;;60.17;;
15340;SDS011;7770;52.158;5.372;2023-02-15T01:08:50;83.93;;;59.60;;
15340;SDS011;7770;52.158;5.372;2023-02-15T01:11:36;88.77;;;60.17;;
15340;SDS011;7770;52.158;5.372;2023-02-15T01:14:22;81.70;;;58.90;;
15340;SDS011;7770;52.158;5.372;2023-02-15T01:17:08;87.43;;;60.13;;
15340;SDS011;7770;52.158;5.372;2023-02-15T01:19:54;82.67;;;56.77;;
15340;SDS011;7770;52.158;5.372;2023-02-15T01:22:40;79.10;;;57.43;;
15340;SDS011;7770;52.158;5.372;2023-02-15T01:25:26;82.30;;;57.20;;
15340;SDS011;7770;52.158;5.372;2023-02-15T01:28:12;76.33;;;55.27;;
15340;SDS011;7770;52.158;5.372;2023-02-15T01:30:59;79.80;;;56.87;;
15340;SDS011;7770;52.158;5.372;2023-02-15T01:33:53;77.33;;;56.57;;
15340;SDS011;7770;52.158;5.372;2023-02-15T01:36:39;86.33;;;59.77;;
15340;SDS011;7770;52.158;5.372;2023-02-15T01:39:25;87.77;;;59.13;;
15340;SDS011;7770;52.158;5.372;2023-02-15T01:42:11;83.03;;;60.33;;
15340;SDS011;7770;52.158;5.372;2023-02-15T01:47:50;79.63;;;56.10;;
15340;SDS011;7770;52.158;5.372;2023-02-15T01:50:56;81.43;;;56.73;;
15340;SDS011;7770;52.158;5.372;2023-02-15T01:53:47;78.77;;;56.17;;
15340;SDS011;7770;52.158;5.372;2023-02-15T01:57:08;82.10;;;54.87;;
15340;SDS011;7770;52.158;5.372;2023-02-15T01:59:59;84.47;;;55.53;;
15340;SDS011;7770;52.158;5.372;2023-02-15T02:02:49;82.07;;;55.67;;
15340;SDS011;7770;52.158;5.372;2023-02-15T02:05:39;80.83;;;56.63;;
15340;SDS011;7770;52.158;5.372;2023-02-15T02:08:26;81.80;;;56.13;;
15340;SDS011;7770;52.158;5.372;2023-02-15T02:11:12;80.53;;;55.40;;
15340;SDS011;7770;52.158;5.372;2023-02-15T02:13:59;80.63;;;56.00;;
15340;SDS011;7770;52.158;5.372;2023-02-15T02:16:52;83.63;;;56.80;;
15340;SDS011;7770;52.158;5.372;2023-02-15T02:29:37;80.10;;;54.67;;
15340;SDS011;7770;52.158;5.372;2023-02-15T02:36:01;82.17;;;54.70;;
15340;SDS011;7770;52.158;5.372;2023-02-15T02:45:35;81.20;;;53.27;;
15340;SDS011;7770;52.158;5.372;2023-02-15T02:48:30;79.97;;;53.13;;
15340;SDS011;7770;52.158;5.372;2023-02-15T02:51:18;85.90;;;55.10;;
15340;SDS011;7770;52.158;5.372;2023-02-15T02:54:07;81.63;;;54.87;;
15340;SDS011;7770;52.158;5.372;2023-02-15T02:56:53;78.73;;;53.27;;
15340;SDS011;7770;52.158;5.372;2023-02-15T02:59:42;81.97;;;54.63;;
15340;SDS011;7770;52.158;5.372;2023-02-15T03:02:32;83.67;;;54.77;;
15340;SDS011;7770;52.158;5.372;2023-02-15T03:05:25;80.33;;;54.80;;
15340;SDS011;7770;52.158;5.372;2023-02-15T03:08:15;77.03;;;53.80;;
15340;SDS011;7770;52.158;5.372;2023-02-15T03:11:07;79.67;;;53.13;;
15340;SDS011;7770;52.158;5.372;2023-02-15T03:13:54;77.90;;;53.30;;
15340;SDS011;7770;52.158;5.372;2023-02-15T03:16:40;79.57;;;52.53;;
15340;SDS011;7770;52.158;5.372;2023-02-15T03:19:33;82.17;;;55.53;;
15340;SDS011;7770;52.158;5.372;2023-02-15T03:22:24;81.97;;;54.57;;
15340;SDS011;7770;52.158;5.372;2023-02-15T03:25:48;82.13;;;53.50;;
15340;SDS011;7770;52.158;5.372;2023-02-15T03:28:42;85.47;;;55.80;;
15340;SDS011;7770;52.158;5.372;2023-02-15T03:31:31;86.40;;;56.37;;
15340;SDS011;7770;52.158;5.372;2023-02-15T03:34:23;83.67;;;53.77;;
15340;SDS011;7770;52.158;5.372;2023-02-15T03:37:13;85.93;;;53.47;;
15340;SDS011;7770;52.158;5.372;2023-02-15T03:40:16;82.13;;;53.17;;
15340;SDS011;7770;52.158;5.372;2023-02-15T03:43:40;83.70;;;52.63;;
15340;SDS011;7770;52.158;5.372;2023-02-15T03:50:09;79.97;;;52.80;;
15340;SDS011;7770;52.158;5.372;2023-02-15T03:53:23;74.87;;;51.27;;
15340;SDS011;7770;52.158;5.372;2023-02-15T03:56:10;78.50;;;52.83;;
15340;SDS011;7770;52.158;5.372;2023-02-15T03:58:56;82.57;;;52.63;;
15340;SDS011;7770;52.158;5.372;2023-02-15T04:02:10;79.83;;;52.80;;
15340;SDS011;7770;52.158;5.372;2023-02-15T04:05:09;79.97;;;52.57;;
15340;SDS011;7770;52.158;5.372;2023-02-15T04:07:55;75.10;;;51.70;;
15340;SDS011;7770;52.158;5.372;2023-02-15T04:10:41;75.57;;;50.53;;
15340;SDS011;7770;52.158;5.372;2023-02-15T04:13:41;78.80;;;49.30;;
15340;SDS011;7770;52.158;5.372;2023-02-15T04:16:28;76.03;;;50.97;;
15340;SDS011;7770;52.158;5.372;2023-02-15T04:19:14;76.87;;;49.37;;
15340;SDS011;7770;52.158;5.372;2023-02-15T04:22:18;75.80;;;49.27;;
15340;SDS011;7770;52.158;5.372;2023-02-15T04:25:23;81.03;;;51.80;;
15340;SDS011;7770;52.158;5.372;2023-02-15T04:28:09;74.33;;;49.47;;
15340;SDS011;7770;52.158;5.372;2023-02-15T04:30:56;78.60;;;49.57;;
15340;SDS011;7770;52.158;5.372;2023-02-15T04:33:42;75.03;;;48.63;;
15340;SDS011;7770;52.158;5.372;2023-02-15T04:36:29;76.27;;;50.53;;
15340;SDS011;7770;52.158;5.372;2023-02-15T04:39:15;72.90;;;49.23;;
15340;SDS011;7770;52.158;5.372;2023-02-15T04:42:02;72.27;;;47.47;;
15340;SDS011;7770;52.158;5.372;2023-02-15T04:44:48;76.77;;;49.20;;
15340;SDS011;7770;52.158;5.372;2023-02-15T04:47:34;72.13;;;47.33;;
15340;SDS011;7770;52.158;5.372;2023-02-15T04:50:20;71.73;;;47.00;;
15340;SDS011;7770;52.158;5.372;2023-02-15T04:53:06;73.40;;;48.23;;
15340;SDS011;7770;52.158;5.372;2023-02-15T04:55:52;75.17;;;47.30;;
15340;SDS011;7770;52.158;5.372;2023-02-15T04:58:38;73.17;;;47.70;;
15340;SDS011;7770;52.158;5.372;2023-02-15T05:01:27;75.47;;;44.27;;
15340;SDS011;7770;52.158;5.372;2023-02-15T05:04:13;76.23;;;48.97;;
15340;SDS011;7770;52.158;5.372;2023-02-15T05:06:59;72.57;;;47.60;;
15340;SDS011;7770;52.158;5.372;2023-02-15T05:09:45;77.13;;;48.67;;
15340;SDS011;7770;52.158;5.372;2023-02-15T05:12:31;78.13;;;47.80;;
15340;SDS011;7770;52.158;5.372;2023-02-15T05:15:17;72.43;;;46.77;;
15340;SDS011;7770;52.158;5.372;2023-02-15T05:18:03;71.37;;;47.07;;
15340;SDS011;7770;52.158;5.372;2023-02-15T05:20:51;77.57;;;48.93;;
15340;SDS011;7770;52.158;5.372;2023-02-15T05:23:37;74.63;;;46.70;;
15340;SDS011;7770;52.158;5.372;2023-02-15T05:26:23;77.30;;;47.93;;
15340;SDS011;7770;52.158;5.372;2023-02-15T05:29:28;71.30;;;46.50;;
15340;SDS011;7770;52.158;5.372;2023-02-15T05:32:14;78.43;;;49.47;;
15340;SDS011;7770;52.158;5.372;2023-02-15T05:35:00;77.90;;;49.23;;
15340;SDS011;7770;52.158;5.372;2023-02-15T05:37:46;83.03;;;49.17;;
15340;SDS011;7770;52.158;5.372;2023-02-15T05:40:32;74.60;;;48.57;;
15340;SDS011;7770;52.158;5.372;2023-02-15T05:43:19;76.10;;;47.90;;
15340;SDS011;7770;52.158;5.372;2023-02-15T05:46:05;75.47;;;46.90;;
15340;SDS011;7770;52.158;5.372;2023-02-15T05:48:51;74.93;;;48.03;;
15340;SDS011;7770;52.158;5.372;2023-02-15T05:51:37;79.93;;;48.87;;
15340;SDS011;7770;52.158;5.372;2023-02-15T05:54:23;75.27;;;48.27;;
15340;SDS011;7770;52.158;5.372;2023-02-15T05:57:09;72.63;;;46.80;;
15340;SDS011;7770;52.158;5.372;2023-02-15T05:59:55;78.43;;;46.83;;
15340;SDS011;7770;52.158;5.372;2023-02-15T06:02:41;76.27;;;47.57;;
15340;SDS011;7770;52.158;5.372;2023-02-15T06:05:27;71.30;;;46.57;;
15340;SDS011;7770;52.158;5.372;2023-02-15T06:08:13;76.40;;;47.67;;
15340;SDS011;7770;52.158;5.372;2023-02-15T06:11:00;77.70;;;47.60;;
15340;SDS011;7770;52.158;5.372;2023-02-15T06:13:46;76.13;;;46.90;;
15340;SDS011;7770;52.158;5.372;2023-02-15T06:16:32;76.00;;;47.37;;
15340;SDS011;7770;52.158;5.372;2023-02-15T06:19:18;69.87;;;45.30;;
15340;SDS011;7770;52.158;5.372;2023-02-15T06:22:06;70.60;;;45.37;;
15340;SDS011;7770;52.158;5.372;2023-02-15T06:24:52;70.63;;;45.30;;
15340;SDS011;7770;52.158;5.372;2023-02-15T06:27:40;73.03;;;46.83;;
15340;SDS011;7770;52.158;5.372;2023-02-15T06:30:27;72.13;;;48.20;;
15340;SDS011;7770;52.158;5.372;2023-02-15T06:33:13;72.97;;;45.90;;
15340;SDS011;7770;52.158;5.372;2023-02-15T06:35:59;69.70;;;45.97;;
15340;SDS011;7770;52.158;5.372;2023-02-15T06:38:46;71.73;;;46.90;;
15340;SDS011;7770;52.158;5.372;2023-02-15T06:41:32;83.87;;;53.67;;
15340;SDS011;7770;52.158;5.372;2023-02-15T06:44:18;77.27;;;49.77;;
15340;SDS011;7770;52.158;5.372;2023-02-15T06:47:04;102.77;;;70.63;;
15340;SDS011;7770;52.158;5.372;2023-02-15T06:49:50;100.27;;;67.53;;
15340;SDS011;7770;52.158;5.372;2023-02-15T06:52:36;76.33;;;48.50;;
15340;SDS011;7770;52.158;5.372;2023-02-15T06:55:22;71.97;;;48.40;;
15340;SDS011;7770;52.158;5.372;2023-02-15T06:58:08;72.67;;;47.03;;
15340;SDS011;7770;52.158;5.372;2023-02-15T07:00:54;75.17;;;46.80;;
15340;SDS011;7770;52.158;5.372;2023-02-15T07:03:40;75.83;;;47.17;;
15340;SDS011;7770;52.158;5.372;2023-02-15T07:06:30;69.67;;;47.23;;
15340;SDS011;7770;52.158;5.372;2023-02-15T07:09:20;77.23;;;48.47;;
15340;SDS011;7770;52.158;5.372;2023-02-15T07:12:07;75.43;;;49.40;;
15340;SDS011;7770;52.158;5.372;2023-02-15T07:15:14;75.67;;;45.43;;
15340;SDS011;7770;52.158;5.372;2023-02-15T07:18:02;71.80;;;47.37;;
15340;SDS011;7770;52.158;5.372;2023-02-15T07:20:50;68.00;;;45.97;;
15340;SDS011;7770;52.158;5.372;2023-02-15T07:23:37;69.43;;;45.80;;
15340;SDS011;7770;52.158;5.372;2023-02-15T07:26:24;72.63;;;46.77;;
15340;SDS011;7770;52.158;5.372;2023-02-15T07:29:10;74.40;;;47.20;;
15340;SDS011;7770;52.158;5.372;2023-02-15T07:31:56;75.77;;;50.43;;
15340;SDS011;7770;52.158;5.372;2023-02-15T07:34:42;68.90;;;42.57;;
15340;SDS011;7770;52.158;5.372;2023-02-15T07:37:28;70.70;;;47.30;;
15340;SDS011;7770;52.158;5.372;2023-02-15T07:40:14;69.17;;;44.83;;
15340;SDS011;7770;52.158;5.372;2023-02-15T07:43:00;65.80;;;45.90;;
15340;SDS011;7770;52.158;5.372;2023-02-15T07:45:46;60.50;;;41.93;;
15340;SDS011;7770;52.158;5.372;2023-02-15T07:48:32;57.40;;;41.63;;
15340;SDS011;7770;52.158;5.372;2023-02-15T07:51:19;56.20;;;37.17;;
15340;SDS011;7770;52.158;5.372;2023-02-15T07:54:05;53.00;;;35.70;;
15340;SDS011;7770;52.158;5.372;2023-02-15T07:56:51;48.80;;;36.07;;
15340;SDS011;7770;52.158;5.372;2023-02-15T07:59:37;50.00;;;36.90;;
15340;SDS011;7770;52.158;5.372;2023-02-15T08:02:23;51.30;;;38.80;;
15340;SDS011;7770;52.158;5.372;2023-02-15T08:05:09;51.63;;;36.13;;
15340;SDS011;7770;52.158;5.372;2023-02-15T08:07:55;47.30;;;35.10;;
15340;SDS011;7770;52.158;5.372;2023-02-15T08:10:41;48.50;;;36.03;;
15340;SDS011;7770;52.158;5.372;2023-02-15T08:13:46;44.33;;;31.57;;
15340;SDS011;7770;52.158;5.372;2023-02-15T08:16:41;48.57;;;35.23;;
15340;SDS011;7770;52.158;5.372;2023-02-15T08:19:41;47.53;;;35.37;;
15340;SDS011;7770;52.158;5.372;2023-02-15T08:22:27;47.73;;;34.87;;
15340;SDS011;7770;52.158;5.372;2023-02-15T08:25:14;46.13;;;33.40;;
15340;SDS011;7770;52.158;5.372;2023-02-15T08:28:00;46.40;;;33.53;;
15340;SDS011;7770;52.158;5.372;2023-02-15T08:30:46;56.33;;;43.73;;
15340;SDS011;7770;52.158;5.372;2023-02-15T08:33:32;41.57;;;35.13;;
15340;SDS011;7770;52.158;5.372;2023-02-15T08:36:20;40.73;;;33.23;;
15340;SDS011;7770;52.158;5.372;2023-02-15T08:39:09;40.63;;;32.40;;
15340;SDS011;7770;52.158;5.372;2023-02-15T08:41:56;42.53;;;33.23;;
15340;SDS011;7770;52.158;5.372;2023-02-15T08:44:43;39.10;;;32.37;;
15340;SDS011;7770;52.158;5.372;2023-02-15T08:47:29;38.90;;;32.70;;
15340;SDS011;7770;52.158;5.372;2023-02-15T08:50:15;39.23;;;33.10;;
15340;SDS011;7770;52.158;5.372;2023-02-15T08:53:01;40.73;;;36.23;;
15340;SDS011;7770;52.158;5.372;2023-02-15T08:55:54;38.67;;;33.57;;
15340;SDS011;7770;52.158;5.372;2023-02-15T08:58:42;38.87;;;32.90;;
15340;SDS011;7770;52.158;5.372;2023-02-15T09:01:29;37.73;;;33.63;;
15340;SDS011;7770;52.158;5.372;2023-02-15T09:04:17;41.23;;;33.93;;
15340;SDS011;7770;52.158;5.372;2023-02-15T09:07:04;37.60;;;32.10;;
15340;SDS011;7770;52.158;5.372;2023-02-15T09:09:50;37.63;;;33.53;;
15340;SDS011;7770;52.158;5.372;2023-02-15T09:12:36;41.30;;;33.90;;
15340;SDS011;7770;52.158;5.372;2023-02-15T09:15:22;40.17;;;35.03;;
15340;SDS011;7770;52.158;5.372;2023-02-15T09:18:08;38.17;;;33.63;;
15340;SDS011;7770;52.158;5.372;2023-02-15T09:20:54;39.90;;;34.43;;
15340;SDS011;7770;52.158;5.372;2023-02-15T09:23:41;40.07;;;35.27;;
15340;SDS011;7770;52.158;5.372;2023-02-15T09:26:29;40.10;;;34.27;;
15340;SDS011;7770;52.158;5.372;2023-02-15T09:29:17;38.47;;;33.93;;
15340;SDS011;7770;52.158;5.372;2023-02-15T09:32:04;39.37;;;35.10;;
15340;SDS011;7770;52.158;5.372;2023-02-15T09:34:50;39.13;;;35.00;;
15340;SDS011;7770;52.158;5.372;2023-02-15T09:37:36;43.10;;;35.53;;
15340;SDS011;7770;52.158;5.372;2023-02-15T09:40:22;40.97;;;34.87;;
15340;SDS011;7770;52.158;5.372;2023-02-15T09:43:14;39.50;;;35.40;;
15340;SDS011;7770;52.158;5.372;2023-02-15T09:46:25;39.13;;;34.93;;
15340;SDS011;7770;52.158;5.372;2023-02-15T09:56:09;40.90;;;36.43;;
15340;SDS011;7770;52.158;5.372;2023-02-15T09:59:14;41.73;;;37.23;;
15340;SDS011;7770;52.158;5.372;2023-02-15T10:02:36;40.60;;;36.30;;
15340;SDS011;7770;52.158;5.372;2023-02-15T10:05:53;42.27;;;37.77;;
15340;SDS011;7770;52.158;5.372;2023-02-15T10:15:19;41.30;;;36.93;;
15340;SDS011;7770;52.158;5.372;2023-02-15T10:21:46;40.43;;;36.33;;
15340;SDS011;7770;52.158;5.372;2023-02-15T10:25:40;41.20;;;36.60;;
15340;SDS011;7770;52.158;5.372;2023-02-15T10:34:39;40.97;;;36.93;;
15340;SDS011;7770;52.158;5.372;2023-02-15T10:44:17;43.03;;;38.93;;
15340;SDS011;7770;52.158;5.372;2023-02-15T10:50:58;42.17;;;38.07;;
15340;SDS011;7770;52.158;5.372;2023-02-15T10:56:50;40.00;;;36.10;;
15340;SDS011;7770;52.158;5.372;2023-02-15T11:02:58;40.70;;;36.40;;
15340;SDS011;7770;52.158;5.372;2023-02-15T11:06:13;39.30;;;35.33;;
15340;SDS011;7770;52.158;5.372;2023-02-15T11:09:04;39.47;;;35.37;;
15340;SDS011;7770;52.158;5.372;2023-02-15T11:12:00;40.23;;;36.33;;
15340;SDS011;7770;52.158;5.372;2023-02-15T11:24:24;40.63;;;36.43;;
15340;SDS011;7770;52.158;5.372;2023-02-15T11:27:21;40.83;;;36.83;;
15340;SDS011;7770;52.158;5.372;2023-02-15T11:30:13;41.70;;;37.40;;
15340;SDS011;7770;52.158;5.372;2023-02-15T11:33:31;42.23;;;37.90;;
15340;SDS011;7770;52.158;5.372;2023-02-15T11:36:24;42.23;;;37.77;;
15340;SDS011;7770;52.158;5.372;2023-02-15T11:39:15;44.03;;;39.33;;
15340;SDS011;7770;52.158;5.372;2023-02-15T11:42:04;43.93;;;39.33;;
15340;SDS011;7770;52.158;5.372;2023-02-15T11:45:00;43.97;;;39.17;;
15340;SDS011;7770;52.158;5.372;2023-02-15T11:48:00;43.07;;;38.10;;
15340;SDS011;7770;52.158;5.372;2023-02-15T11:50:55;44.70;;;40.03;;
15340;SDS011;7770;52.158;5.372;2023-02-15T11:53:42;45.17;;;40.53;;
15340;SDS011;7770;52.158;5.372;2023-02-15T11:56:30;46.27;;;40.80;;
15340;SDS011;7770;52.158;5.372;2023-02-15T11:59:21;45.73;;;40.67;;
15340;SDS011;7770;52.158;5.372;2023-02-15T12:02:21;47.50;;;41.13;;
15340;SDS011;7770;52.158;5.372;2023-02-15T12:05:12;45.40;;;40.60;;
15340;SDS011;7770;52.158;5.372;2023-02-15T12:08:09;42.93;;;38.33;;
15340;SDS011;7770;52.158;5.372;2023-02-15T12:11:06;44.83;;;39.87;;
15340;SDS011;7770;52.158;5.372;2023-02-15T12:14:11;44.70;;;40.10;;
15340;SDS011;7770;52.158;5.372;2023-02-15T12:17:01;44.10;;;39.17;;
15340;SDS011;7770;52.158;5.372;2023-02-15T12:19:47;42.87;;;38.27;;
15340;SDS011;7770;52.158;5.372;2023-02-15T12:22:37;43.30;;;38.70;;
15340;SDS011;7770;52.158;5.372;2023-02-15T12:25:29;44.23;;;39.47;;
15340;SDS011;7770;52.158;5.372;2023-02-15T12:28:43;42.93;;;38.33;;
15340;SDS011;7770;52.158;5.372;2023-02-15T12:31:38;42.27;;;37.67;;
15340;SDS011;7770;52.158;5.372;2023-02-15T12:34:32;42.47;;;37.97;;
15340;SDS011;7770;52.158;5.372;2023-02-15T12:37:28;42.47;;;38.00;;
15340;SDS011;7770;52.158;5.372;2023-02-15T12:43:27;44.07;;;39.20;;
15340;SDS011;7770;52.158;5.372;2023-02-15T12:46:24;43.40;;;38.90;;
15340;SDS011;7770;52.158;5.372;2023-02-15T12:49:18;43.00;;;38.60;;
15340;SDS011;7770;52.158;5.372;2023-02-15T12:52:13;42.80;;;38.20;;
15340;SDS011;7770;52.158;5.372;2023-02-15T12:55:21;42.73;;;38.23;;
15340;SDS011;7770;52.158;5.372;2023-02-15T13:04:13;44.70;;;39.13;;
15340;SDS011;7770;52.158;5.372;2023-02-15T13:07:09;45.63;;;38.67;;
15340;SDS011;7770;52.158;5.372;2023-02-15T13:09:56;46.20;;;39.00;;
15340;SDS011;7770;52.158;5.372;2023-02-15T13:12:43;45.73;;;38.93;;
15340;SDS011;7770;52.158;5.372;2023-02-15T13:15:34;44.63;;;39.57;;
15340;SDS011;7770;52.158;5.372;2023-02-15T13:18:31;50.37;;;40.97;;
15340;SDS011;7770;52.158;5.372;2023-02-15T13:21:23;44.70;;;39.80;;
15340;SDS011;7770;52.158;5.372;2023-02-15T13:24:21;47.50;;;40.17;;
15340;SDS011;7770;52.158;5.372;2023-02-15T13:27:18;45.67;;;39.47;;
15340;SDS011;7770;52.158;5.372;2023-02-15T13:30:13;48.90;;;39.47;;
15340;SDS011;7770;52.158;5.372;2023-02-15T13:42:42;43.13;;;36.67;;
15340;SDS011;7770;52.158;5.372;2023-02-15T13:49:05;40.40;;;35.80;;
15340;SDS011;7770;52.158;5.372;2023-02-15T13:52:08;43.83;;;37.57;;
15340;SDS011;7770;52.158;5.372;2023-02-15T14:01:44;46.27;;;39.33;;
15340;SDS011;7770;52.158;5.372;2023-02-15T14:15:23;46.63;;;41.53;;
15340;SDS011;7770;52.158;5.372;2023-02-15T14:21:32;47.97;;;41.90;;
15340;SDS011;7770;52.158;5.372;2023-02-15T14:24:58;47.30;;;41.67;;
15340;SDS011;7770;52.158;5.372;2023-02-15T14:30:57;49.57;;;41.87;;
15340;SDS011;7770;52.158;5.372;2023-02-15T14:33:47;48.10;;;41.10;;
15340;SDS011;7770;52.158;5.372;2023-02-15T14:36:40;48.83;;;42.70;;
15340;SDS011;7770;52.158;5.372;2023-02-15T14:39:42;50.40;;;43.10;;
15340;SDS011;7770;52.158;5.372;2023-02-15T14:43:08;51.97;;;41.70;;
15340;SDS011;7770;52.158;5.372;2023-02-15T14:46:25;52.03;;;42.97;;
15340;SDS011;7770;52.158;5.372;2023-02-15T14:49:31;51.27;;;42.13;;
15340;SDS011;7770;52.158;5.372;2023-02-15T14:52:21;48.70;;;43.10;;
15340;SDS011;7770;52.158;5.372;2023-02-15T14:55:07;52.07;;;44.67;;
15340;SDS011;7770;52.158;5.372;2023-02-15T14:57:56;53.67;;;44.47;;
15340;SDS011;7770;52.158;5.372;2023-02-15T15:00:44;51.77;;;43.67;;
15340;SDS011;7770;52.158;5.372;2023-02-15T15:03:30;49.67;;;43.00;;
15340;SDS011;7770;52.158;5.372;2023-02-15T15:06:23;53.00;;;44.20;;
15340;SDS011;7770;52.158;5.372;2023-02-15T15:09:22;50.17;;;42.83;;
15340;SDS011;7770;52.158;5.372;2023-02-15T15:18:42;54.93;;;44.30;;
15340;SDS011;7770;52.158;5.372;2023-02-15T15:33:51;51.50;;;43.13;;
15340;SDS011;7770;52.158;5.372;2023-02-15T15:43:16;54.63;;;45.53;;
15340;SDS011;7770;52.158;5.372;2023-02-15T15:46:28;50.27;;;44.67;;
15340;SDS011;7770;52.158;5.372;2023-02-15T15:49:37;54.53;;;45.73;;
15340;SDS011;7770;52.158;5.372;2023-02-15T15:52:25;55.47;;;46.63;;
15340;SDS011;7770;52.158;5.372;2023-02-15T15:55:20;56.07;;;45.97;;
15340;SDS011;7770;52.158;5.372;2023-02-15T15:58:09;54.63;;;46.87;;
15340;SDS011;7770;52.158;5.372;2023-02-15T16:01:03;57.73;;;45.77;;
15340;SDS011;7770;52.158;5.372;2023-02-15T16:03:59;53.43;;;44.00;;
15340;SDS011;7770;52.158;5.372;2023-02-15T16:06:45;56.70;;;45.33;;
15340;SDS011;7770;52.158;5.372;2023-02-15T16:09:31;57.80;;;46.07;;
15340;SDS011;7770;52.158;5.372;2023-02-15T16:12:17;53.10;;;45.67;;
15340;SDS011;7770;52.158;5.372;2023-02-15T16:15:19;53.47;;;45.30;;
15340;SDS011;7770;52.158;5.372;2023-02-15T16:18:05;57.70;;;45.73;;
15340;SDS011;7770;52.158;5.372;2023-02-15T16:20:55;58.00;;;47.40;;
15340;SDS011;7770;52.158;5.372;2023-02-15T16:29:58;52.80;;;45.67;;
15340;SDS011;7770;52.158;5.372;2023-02-15T16:33:06;53.83;;;45.70;;
15340;SDS011;7770;52.158;5.372;2023-02-15T16:36:00;56.17;;;46.23;;
15340;SDS011;7770;52.158;5.372;2023-02-15T16:41:41;53.17;;;44.93;;
15340;SDS011;7770;52.158;5.372;2023-02-15T16:44:31;57.20;;;46.40;;
15340;SDS011;7770;52.158;5.372;2023-02-15T16:47:25;58.43;;;48.57;;
15340;SDS011;7770;52.158;5.372;2023-02-15T16:50:23;56.23;;;46.87;;
15340;SDS011;7770;52.158;5.372;2023-02-15T16:53:20;59.00;;;47.23;;
15340;SDS011;7770;52.158;5.372;2023-02-15T16:56:09;58.47;;;47.50;;
15340;SDS011;7770;52.158;5.372;2023-02-15T16:58:56;57.33;;;46.27;;
15340;SDS011;7770;52.158;5.372;2023-02-15T17:01:43;62.53;;;49.53;;
15340;SDS011;7770;52.158;5.372;2023-02-15T17:04:30;59.87;;;48.13;;
15340;SDS011;7770;52.158;5.372;2023-02-15T17:07:19;56.93;;;47.10;;
15340;SDS011;7770;52.158;5.372;2023-02-15T17:11:01;59.30;;;48.57;;
15340;SDS011;7770;52.158;5.372;2023-02-15T17:13:22;57.97;;;46.67;;
15340;SDS011;7770;52.158;5.372;2023-02-15T17:16:21;63.23;;;51.77;;
15340;SDS011;7770;52.158;5.372;2023-02-15T17:19:18;68.47;;;52.30;;
15340;SDS011;7770;52.158;5.372;2023-02-15T17:22:06;60.80;;;48.77;;
15340;SDS011;7770;52.158;5.372;2023-02-15T17:25:03;60.17;;;48.60;;
15340;SDS011;7770;52.158;5.372;2023-02-15T17:27:50;68.27;;;49.87;;
15340;SDS011;7770;52.158;5.372;2023-02-15T17:30:38;63.47;;;50.77;;
15340;SDS011;7770;52.158;5.372;2023-02-15T17:36:20;64.50;;;52.07;;
15340;SDS011;7770;52.158;5.372;2023-02-15T17:39:21;67.63;;;52.07;;
15340;SDS011;7770;52.158;5.372;2023-02-15T17:42:07;65.40;;;52.67;;
15340;SDS011;7770;52.158;5.372;2023-02-15T17:44:53;61.80;;;50.93;;
15340;SDS011;7770;52.158;5.372;2023-02-15T17:47:39;62.57;;;50.83;;
15340;SDS011;7770;52.158;5.372;2023-02-15T17:50:26;63.83;;;50.33;;
15340;SDS011;7770;52.158;5.372;2023-02-15T17:53:13;66.73;;;51.57;;
15340;SDS011;7770;52.158;5.372;2023-02-15T17:56:03;66.13;;;52.77;;
15340;SDS011;7770;52.158;5.372;2023-02-15T17:58:54;68.50;;;51.77;;
15340;SDS011;7770;52.158;5.372;2023-02-15T18:01:43;65.53;;;49.90;;
15340;SDS011;7770;52.158;5.372;2023-02-15T18:04:50;61.80;;;49.07;;
15340;SDS011;7770;52.158;5.372;2023-02-15T18:07:55;61.63;;;47.90;;
15340;SDS011;7770;52.158;5.372;2023-02-15T18:10:59;62.87;;;49.87;;
15340;SDS011;7770;52.158;5.372;2023-02-15T18:14:05;61.33;;;47.50;;
15340;SDS011;7770;52.158;5.372;2023-02-15T18:16:53;63.27;;;48.90;;
15340;SDS011;7770;52.158;5.372;2023-02-15T18:19:40;64.37;;;47.83;;
15340;SDS011;7770;52.158;5.372;2023-02-15T18:22:28;56.73;;;46.73;;
15340;SDS011;7770;52.158;5.372;2023-02-15T18:25:16;60.07;;;47.87;;
15340;SDS011;7770;52.158;5.372;2023-02-15T18:28:04;62.93;;;47.57;;
15340;SDS011;7770;52.158;5.372;2023-02-15T18:30:50;66.07;;;51.03;;
15340;SDS011;7770;52.158;5.372;2023-02-15T18:33:41;65.33;;;48.80;;
15340;SDS011;7770;52.158;5.372;2023-02-15T18:36:34;63.57;;;48.47;;
15340;SDS011;7770;52.158;5.372;2023-02-15T18:42:25;64.77;;;49.07;;
15340;SDS011;7770;52.158;5.372;2023-02-15T18:45:19;61.90;;;48.80;;
15340;SDS011;7770;52.158;5.372;2023-02-15T18:48:16;60.73;;;46.63;;
15340;SDS011;7770;52.158;5.372;2023-02-15T18:51:02;61.23;;;47.83;;
15340;SDS011;7770;52.158;5.372;2023-02-15T18:53:49;60.07;;;47.70;;
15340;SDS011;7770;52.158;5.372;2023-02-15T18:56:37;59.73;;;47.57;;
15340;SDS011;7770;52.158;5.372;2023-02-15T18:59:24;62.67;;;48.47;;
15340;SDS011;7770;52.158;5.372;2023-02-15T19:02:12;63.43;;;47.60;;
15340;SDS011;7770;52.158;5.372;2023-02-15T19:05:01;63.63;;;47.77;;
15340;SDS011;7770;52.158;5.372;2023-02-15T19:07:47;68.57;;;51.87;;
15340;SDS011;7770;52.158;5.372;2023-02-15T19:10:34;64.60;;;48.43;;
15340;SDS011;7770;52.158;5.372;2023-02-15T19:13:20;66.00;;;47.73;;
15340;SDS011;7770;52.158;5.372;2023-02-15T19:16:08;62.43;;;46.27;;
15340;SDS011;7770;52.158;5.372;2023-02-15T19:19:16;65.70;;;49.50;;
15340;SDS011;7770;52.158;5.372;2023-02-15T19:22:02;62.57;;;47.13;;
15340;SDS011;7770;52.158;5.372;2023-02-15T19:24:49;67.97;;;48.77;;
15340;SDS011;7770;52.158;5.372;2023-02-15T19:27:36;61.90;;;45.60;;
15340;SDS011;7770;52.158;5.372;2023-02-15T19:30:26;61.23;;;46.77;;
15340;SDS011;7770;52.158;5.372;2023-02-15T19:33:15;64.87;;;49.37;;
15340;SDS011;7770;52.158;5.372;2023-02-15T19:36:04;64.07;;;47.90;;
15340;SDS011;7770;52.158;5.372;2023-02-15T19:38:53;63.73;;;47.00;;